sensor_id;sensor_type;location;lat;lon;timestamp;temperature;humidity
59572;DHT22;59406;45.602;11.904;2022-09-09T00:06:21;21.80;84.30
59572;DHT22;59406;45.602;11.904;2022-09-09T00:11:23;21.70;84.20
59572;DHT22;59406;45.602;11.904;2022-09-09T00:13:52;21.70;84.50
59572;DHT22;59406;45.602;11.904;2022-09-09T00:16:25;21.80;84.30
59572;DHT22;59406;45.602;11.904;2022-09-09T00:22:03;21.70;84.80
59572;DHT22;59406;45.602;11.904;2022-09-09T00:24:46;21.70;84.60
59572;DHT22;59406;45.602;11.904;2022-09-09T00:29:55;21.70;84.30
59572;DHT22;59406;45.602;11.904;2022-09-09T00:32:29;21.60;84.70
59572;DHT22;59406;45.602;11.904;2022-09-09T00:35:03;21.60;84.50
59572;DHT22;59406;45.602;11.904;2022-09-09T00:37:38;21.60;84.70
59572;DHT22;59406;45.602;11.904;2022-09-09T00:40:35;21.60;85.20
59572;DHT22;59406;45.602;11.904;2022-09-09T00:43:56;21.50;85.20
59572;DHT22;59406;45.602;11.904;2022-09-09T00:48:34;21.50;85.10
59572;DHT22;59406;45.602;11.904;2022-09-09T00:51:17;21.50;85.40
59572;DHT22;59406;45.602;11.904;2022-09-09T00:57:00;21.50;85.80
59572;DHT22;59406;45.602;11.904;2022-09-09T00:59:52;21.40;85.70
59572;DHT22;59406;45.602;11.904;2022-09-09T01:02:29;21.40;86.00
59572;DHT22;59406;45.602;11.904;2022-09-09T01:05:07;21.40;85.60
59572;DHT22;59406;45.602;11.904;2022-09-09T01:07:37;21.40;85.60
59572;DHT22;59406;45.602;11.904;2022-09-09T01:10:09;21.40;85.30
59572;DHT22;59406;45.602;11.904;2022-09-09T01:12:42;21.40;85.30
59572;DHT22;59406;45.602;11.904;2022-09-09T01:15:12;21.40;85.10
59572;DHT22;59406;45.602;11.904;2022-09-09T01:18:23;21.40;84.90
59572;DHT22;59406;45.602;11.904;2022-09-09T01:20:55;21.40;85.10
59572;DHT22;59406;45.602;11.904;2022-09-09T01:29:01;21.30;85.20
59572;DHT22;59406;45.602;11.904;2022-09-09T01:31:34;21.30;85.20
59572;DHT22;59406;45.602;11.904;2022-09-09T01:34:02;21.30;85.30
59572;DHT22;59406;45.602;11.904;2022-09-09T01:36:46;21.30;85.60
59572;DHT22;59406;45.602;11.904;2022-09-09T01:39:14;21.20;85.90
59572;DHT22;59406;45.602;11.904;2022-09-09T01:41:40;21.20;86.20
59572;DHT22;59406;45.602;11.904;2022-09-09T01:44:07;21.20;86.00
59572;DHT22;59406;45.602;11.904;2022-09-09T01:46:34;21.20;86.40
59572;DHT22;59406;45.602;11.904;2022-09-09T01:49:02;21.20;86.50
59572;DHT22;59406;45.602;11.904;2022-09-09T01:51:29;21.20;86.60
59572;DHT22;59406;45.602;11.904;2022-09-09T01:53:55;21.30;86.60
59572;DHT22;59406;45.602;11.904;2022-09-09T01:58:57;21.30;86.50
59572;DHT22;59406;45.602;11.904;2022-09-09T02:01:38;21.30;86.50
59572;DHT22;59406;45.602;11.904;2022-09-09T02:04:23;21.30;86.50
59572;DHT22;59406;45.602;11.904;2022-09-09T02:06:56;21.30;86.60
59572;DHT22;59406;45.602;11.904;2022-09-09T02:09:24;21.30;86.40
59572;DHT22;59406;45.602;11.904;2022-09-09T02:11:57;21.20;86.30
59572;DHT22;59406;45.602;11.904;2022-09-09T02:14:28;21.30;86.30
59572;DHT22;59406;45.602;11.904;2022-09-09T02:17:06;21.40;86.40
59572;DHT22;59406;45.602;11.904;2022-09-09T02:19:37;21.30;86.20
59572;DHT22;59406;45.602;11.904;2022-09-09T02:22:05;21.30;86.20
59572;DHT22;59406;45.602;11.904;2022-09-09T02:24:35;21.40;86.20
59572;DHT22;59406;45.602;11.904;2022-09-09T02:27:04;21.40;86.00
59572;DHT22;59406;45.602;11.904;2022-09-09T02:29:40;21.40;86.00
59572;DHT22;59406;45.602;11.904;2022-09-09T02:32:11;21.30;86.10
59572;DHT22;59406;45.602;11.904;2022-09-09T02:34:45;21.40;86.00
59572;DHT22;59406;45.602;11.904;2022-09-09T02:37:17;21.40;85.90
59572;DHT22;59406;45.602;11.904;2022-09-09T02:39:43;21.30;85.90
59572;DHT22;59406;45.602;11.904;2022-09-09T02:42:10;21.30;85.70
59572;DHT22;59406;45.602;11.904;2022-09-09T02:44:36;21.30;86.00
59572;DHT22;59406;45.602;11.904;2022-09-09T02:47:24;21.30;85.80
59572;DHT22;59406;45.602;11.904;2022-09-09T02:50:00;21.40;85.70
59572;DHT22;59406;45.602;11.904;2022-09-09T02:58:05;21.30;85.80
59572;DHT22;59406;45.602;11.904;2022-09-09T03:00:33;21.30;85.90
59572;DHT22;59406;45.602;11.904;2022-09-09T03:03:03;21.40;85.70
59572;DHT22;59406;45.602;11.904;2022-09-09T03:05:29;21.40;85.50
59572;DHT22;59406;45.602;11.904;2022-09-09T03:07:55;21.30;85.50
59572;DHT22;59406;45.602;11.904;2022-09-09T03:10:22;21.40;85.50
59572;DHT22;59406;45.602;11.904;2022-09-09T03:12:48;21.40;85.50
59572;DHT22;59406;45.602;11.904;2022-09-09T03:15:14;21.40;85.10
59572;DHT22;59406;45.602;11.904;2022-09-09T03:17:40;21.40;85.10
59572;DHT22;59406;45.602;11.904;2022-09-09T03:20:07;21.30;85.00
59572;DHT22;59406;45.602;11.904;2022-09-09T03:22:34;21.40;85.00
59572;DHT22;59406;45.602;11.904;2022-09-09T03:25:01;21.30;85.00
59572;DHT22;59406;45.602;11.904;2022-09-09T03:27:28;21.30;84.90
59572;DHT22;59406;45.602;11.904;2022-09-09T03:29:55;21.30;84.90
59572;DHT22;59406;45.602;11.904;2022-09-09T03:32:21;21.30;84.90
59572;DHT22;59406;45.602;11.904;2022-09-09T03:34:52;21.30;84.80
59572;DHT22;59406;45.602;11.904;2022-09-09T03:37:18;21.30;84.90
59572;DHT22;59406;45.602;11.904;2022-09-09T03:39:45;21.20;84.90
59572;DHT22;59406;45.602;11.904;2022-09-09T03:42:15;21.10;85.10
59572;DHT22;59406;45.602;11.904;2022-09-09T03:44:45;21.20;85.00
59572;DHT22;59406;45.602;11.904;2022-09-09T03:47:17;21.20;84.90
59572;DHT22;59406;45.602;11.904;2022-09-09T03:49:44;21.10;84.70
59572;DHT22;59406;45.602;11.904;2022-09-09T03:52:11;21.00;84.90
59572;DHT22;59406;45.602;11.904;2022-09-09T03:54:37;21.10;84.90
59572;DHT22;59406;45.602;11.904;2022-09-09T03:57:04;21.10;85.00
59572;DHT22;59406;45.602;11.904;2022-09-09T03:59:30;21.00;85.00
59572;DHT22;59406;45.602;11.904;2022-09-09T04:01:56;21.00;85.10
59572;DHT22;59406;45.602;11.904;2022-09-09T04:04:25;20.90;85.20
59572;DHT22;59406;45.602;11.904;2022-09-09T04:06:52;20.90;85.60
59572;DHT22;59406;45.602;11.904;2022-09-09T04:09:21;20.80;86.90
59572;DHT22;59406;45.602;11.904;2022-09-09T04:11:47;20.80;86.60
59572;DHT22;59406;45.602;11.904;2022-09-09T04:14:13;20.90;85.40
59572;DHT22;59406;45.602;11.904;2022-09-09T04:16:39;20.80;86.80
59572;DHT22;59406;45.602;11.904;2022-09-09T04:19:08;20.80;86.80
59572;DHT22;59406;45.602;11.904;2022-09-09T04:21:34;20.80;86.70
59572;DHT22;59406;45.602;11.904;2022-09-09T04:24:00;20.70;86.70
59572;DHT22;59406;45.602;11.904;2022-09-09T04:26:26;20.70;86.80
59572;DHT22;59406;45.602;11.904;2022-09-09T04:28:52;20.70;87.00
59572;DHT22;59406;45.602;11.904;2022-09-09T04:31:22;20.70;87.30
59572;DHT22;59406;45.602;11.904;2022-09-09T04:33:50;20.60;87.30
59572;DHT22;59406;45.602;11.904;2022-09-09T04:36:17;20.60;87.80
59572;DHT22;59406;45.602;11.904;2022-09-09T04:38:45;20.60;87.70
59572;DHT22;59406;45.602;11.904;2022-09-09T04:41:12;20.60;87.90
59572;DHT22;59406;45.602;11.904;2022-09-09T04:43:39;20.60;87.50
59572;DHT22;59406;45.602;11.904;2022-09-09T04:46:05;20.60;87.70
59572;DHT22;59406;45.602;11.904;2022-09-09T04:48:31;20.70;87.60
59572;DHT22;59406;45.602;11.904;2022-09-09T04:51:05;20.70;87.90
59572;DHT22;59406;45.602;11.904;2022-09-09T04:53:33;20.70;87.60
59572;DHT22;59406;45.602;11.904;2022-09-09T04:56:16;20.70;87.40
59572;DHT22;59406;45.602;11.904;2022-09-09T04:58:42;20.60;87.50
59572;DHT22;59406;45.602;11.904;2022-09-09T05:01:14;20.80;87.40
59572;DHT22;59406;45.602;11.904;2022-09-09T05:03:40;20.80;87.40
59572;DHT22;59406;45.602;11.904;2022-09-09T05:06:11;20.80;87.20
59572;DHT22;59406;45.602;11.904;2022-09-09T05:08:38;20.80;87.00
59572;DHT22;59406;45.602;11.904;2022-09-09T05:13:45;21.10;85.80
59572;DHT22;59406;45.602;11.904;2022-09-09T05:16:12;21.20;85.60
59572;DHT22;59406;45.602;11.904;2022-09-09T05:18:39;21.40;85.50
59572;DHT22;59406;45.602;11.904;2022-09-09T05:21:06;21.40;85.20
59572;DHT22;59406;45.602;11.904;2022-09-09T05:23:34;21.60;85.10
59572;DHT22;59406;45.602;11.904;2022-09-09T05:26:01;21.70;84.80
59572;DHT22;59406;45.602;11.904;2022-09-09T05:28:28;21.90;84.60
59572;DHT22;59406;45.602;11.904;2022-09-09T05:30:59;22.00;84.50
59572;DHT22;59406;45.602;11.904;2022-09-09T05:33:36;22.20;84.20
59572;DHT22;59406;45.602;11.904;2022-09-09T05:36:05;22.30;84.00
59572;DHT22;59406;45.602;11.904;2022-09-09T05:38:32;22.40;83.60
59572;DHT22;59406;45.602;11.904;2022-09-09T05:41:02;22.60;84.00
59572;DHT22;59406;45.602;11.904;2022-09-09T05:43:29;22.80;83.00
59572;DHT22;59406;45.602;11.904;2022-09-09T05:46:06;23.00;83.00
59572;DHT22;59406;45.602;11.904;2022-09-09T05:48:35;23.10;82.60
59572;DHT22;59406;45.602;11.904;2022-09-09T05:51:01;23.10;82.40
59572;DHT22;59406;45.602;11.904;2022-09-09T05:53:32;23.20;82.00
59572;DHT22;59406;45.602;11.904;2022-09-09T05:58:33;23.30;82.20
59572;DHT22;59406;45.602;11.904;2022-09-09T06:01:06;23.30;82.00
59572;DHT22;59406;45.602;11.904;2022-09-09T06:03:34;23.20;82.20
59572;DHT22;59406;45.602;11.904;2022-09-09T06:06:05;23.20;82.20
59572;DHT22;59406;45.602;11.904;2022-09-09T06:08:39;23.40;82.10
59572;DHT22;59406;45.602;11.904;2022-09-09T06:11:07;23.50;82.10
59572;DHT22;59406;45.602;11.904;2022-09-09T06:13:36;23.60;82.70
59572;DHT22;59406;45.602;11.904;2022-09-09T06:16:06;23.80;82.40
59572;DHT22;59406;45.602;11.904;2022-09-09T06:18:33;24.00;82.10
59572;DHT22;59406;45.602;11.904;2022-09-09T06:21:01;24.20;81.80
59572;DHT22;59406;45.602;11.904;2022-09-09T06:23:30;24.40;81.60
59572;DHT22;59406;45.602;11.904;2022-09-09T06:26:07;24.30;81.30
59572;DHT22;59406;45.602;11.904;2022-09-09T06:28:34;24.50;81.30
59572;DHT22;59406;45.602;11.904;2022-09-09T06:31:05;24.90;80.90
59572;DHT22;59406;45.602;11.904;2022-09-09T06:33:34;25.20;79.90
59572;DHT22;59406;45.602;11.904;2022-09-09T06:36:02;25.40;79.20
59572;DHT22;59406;45.602;11.904;2022-09-09T06:38:31;25.70;79.40
59572;DHT22;59406;45.602;11.904;2022-09-09T06:40:59;25.80;79.10
59572;DHT22;59406;45.602;11.904;2022-09-09T06:43:26;25.90;78.40
59572;DHT22;59406;45.602;11.904;2022-09-09T06:45:59;26.00;78.80
59572;DHT22;59406;45.602;11.904;2022-09-09T06:48:27;26.30;78.00
59572;DHT22;59406;45.602;11.904;2022-09-09T06:51:15;26.40;79.00
59572;DHT22;59406;45.602;11.904;2022-09-09T06:53:43;26.70;78.80
59572;DHT22;59406;45.602;11.904;2022-09-09T06:58:37;27.00;78.20
59572;DHT22;59406;45.602;11.904;2022-09-09T07:01:05;26.90;78.30
59572;DHT22;59406;45.602;11.904;2022-09-09T07:03:32;26.50;78.70
59572;DHT22;59406;45.602;11.904;2022-09-09T07:05:58;26.40;78.80
59572;DHT22;59406;45.602;11.904;2022-09-09T07:08:25;26.70;78.80
59572;DHT22;59406;45.602;11.904;2022-09-09T07:10:52;26.80;78.30
59572;DHT22;59406;45.602;11.904;2022-09-09T07:13:24;26.80;78.40
59572;DHT22;59406;45.602;11.904;2022-09-09T07:15:52;27.30;78.50
59572;DHT22;59406;45.602;11.904;2022-09-09T07:18:18;27.40;77.60
59572;DHT22;59406;45.602;11.904;2022-09-09T07:20:53;27.20;77.60
59572;DHT22;59406;45.602;11.904;2022-09-09T07:23:20;26.60;77.70
59572;DHT22;59406;45.602;11.904;2022-09-09T07:25:47;26.50;77.90
59572;DHT22;59406;45.602;11.904;2022-09-09T07:28:13;26.40;78.40
59572;DHT22;59406;45.602;11.904;2022-09-09T07:30:40;26.50;78.40
59572;DHT22;59406;45.602;11.904;2022-09-09T07:33:07;26.40;78.00
59572;DHT22;59406;45.602;11.904;2022-09-09T07:35:33;26.40;78.40
59572;DHT22;59406;45.602;11.904;2022-09-09T07:38:01;26.30;77.30
59572;DHT22;59406;45.602;11.904;2022-09-09T07:40:27;26.30;77.40
59572;DHT22;59406;45.602;11.904;2022-09-09T07:42:53;26.50;78.10
59572;DHT22;59406;45.602;11.904;2022-09-09T07:45:19;27.10;77.70
59572;DHT22;59406;45.602;11.904;2022-09-09T07:47:45;27.80;76.60
59572;DHT22;59406;45.602;11.904;2022-09-09T07:50:11;28.10;75.90
59572;DHT22;59406;45.602;11.904;2022-09-09T07:52:37;28.40;75.60
59572;DHT22;59406;45.602;11.904;2022-09-09T07:55:03;28.60;75.00
59572;DHT22;59406;45.602;11.904;2022-09-09T07:57:30;28.50;75.00
59572;DHT22;59406;45.602;11.904;2022-09-09T07:59:57;28.40;75.60
59572;DHT22;59406;45.602;11.904;2022-09-09T08:02:24;28.30;75.60
59572;DHT22;59406;45.602;11.904;2022-09-09T08:04:51;27.70;75.80
59572;DHT22;59406;45.602;11.904;2022-09-09T08:07:17;27.40;76.10
59572;DHT22;59406;45.602;11.904;2022-09-09T08:09:43;27.10;76.40
59572;DHT22;59406;45.602;11.904;2022-09-09T08:12:09;26.80;76.70
59572;DHT22;59406;45.602;11.904;2022-09-09T08:14:36;26.70;76.90
59572;DHT22;59406;45.602;11.904;2022-09-09T08:17:02;26.70;77.10
59572;DHT22;59406;45.602;11.904;2022-09-09T08:19:28;26.70;77.20
59572;DHT22;59406;45.602;11.904;2022-09-09T08:21:55;26.90;77.10
59572;DHT22;59406;45.602;11.904;2022-09-09T08:24:22;27.20;77.00
59572;DHT22;59406;45.602;11.904;2022-09-09T08:26:49;27.10;75.60
59572;DHT22;59406;45.602;11.904;2022-09-09T08:29:15;27.00;76.80
59572;DHT22;59406;45.602;11.904;2022-09-09T08:31:59;26.80;76.50
59572;DHT22;59406;45.602;11.904;2022-09-09T08:34:26;26.60;75.80
59572;DHT22;59406;45.602;11.904;2022-09-09T08:36:53;26.40;76.30
59572;DHT22;59406;45.602;11.904;2022-09-09T08:39:21;26.30;75.70
59572;DHT22;59406;45.602;11.904;2022-09-09T08:42:01;26.20;75.80
59572;DHT22;59406;45.602;11.904;2022-09-09T08:44:44;26.10;76.30
59572;DHT22;59406;45.602;11.904;2022-09-09T09:03:38;28.80;74.10
59572;DHT22;59406;45.602;11.904;2022-09-09T09:11:43;29.10;73.10
59572;DHT22;59406;45.602;11.904;2022-09-09T09:14:26;29.00;72.30
59572;DHT22;59406;45.602;11.904;2022-09-09T09:17:00;29.50;72.60
59572;DHT22;59406;45.602;11.904;2022-09-09T09:19:28;30.70;69.70
59572;DHT22;59406;45.602;11.904;2022-09-09T09:27:35;31.40;64.80
59572;DHT22;59406;45.602;11.904;2022-09-09T09:30:20;31.80;66.40
59572;DHT22;59406;45.602;11.904;2022-09-09T09:32:54;32.40;62.40
59572;DHT22;59406;45.602;11.904;2022-09-09T09:35:21;32.30;62.00
59572;DHT22;59406;45.602;11.904;2022-09-09T09:37:47;32.50;62.10
59572;DHT22;59406;45.602;11.904;2022-09-09T09:40:19;33.60;60.00
59572;DHT22;59406;45.602;11.904;2022-09-09T09:42:54;34.40;59.20
59572;DHT22;59406;45.602;11.904;2022-09-09T09:48:11;33.90;58.30
59572;DHT22;59406;45.602;11.904;2022-09-09T09:50:59;33.50;60.10
59572;DHT22;59406;45.602;11.904;2022-09-09T09:53:27;32.50;61.60
59572;DHT22;59406;45.602;11.904;2022-09-09T09:55:55;33.00;61.40
59572;DHT22;59406;45.602;11.904;2022-09-09T09:58:23;33.60;60.70
59572;DHT22;59406;45.602;11.904;2022-09-09T10:00:53;33.60;60.10
59572;DHT22;59406;45.602;11.904;2022-09-09T10:03:26;34.10;57.80
59572;DHT22;59406;45.602;11.904;2022-09-09T10:05:52;33.50;60.00
59572;DHT22;59406;45.602;11.904;2022-09-09T10:08:19;34.20;59.30
59572;DHT22;59406;45.602;11.904;2022-09-09T10:13:53;33.90;57.00
59572;DHT22;59406;45.602;11.904;2022-09-09T10:19:01;34.60;55.70
59572;DHT22;59406;45.602;11.904;2022-09-09T10:26:47;34.60;54.80
59572;DHT22;59406;45.602;11.904;2022-09-09T10:29:39;34.50;55.20
59572;DHT22;59406;45.602;11.904;2022-09-09T10:32:36;33.30;57.80
59572;DHT22;59406;45.602;11.904;2022-09-09T10:35:22;32.60;58.50
59572;DHT22;59406;45.602;11.904;2022-09-09T10:40:40;33.70;56.80
59572;DHT22;59406;45.602;11.904;2022-09-09T10:43:12;33.60;58.30
59572;DHT22;59406;45.602;11.904;2022-09-09T10:45:52;34.10;56.60
59572;DHT22;59406;45.602;11.904;2022-09-09T10:51:49;34.90;54.60
59572;DHT22;59406;45.602;11.904;2022-09-09T10:56:52;35.60;52.60
59572;DHT22;59406;45.602;11.904;2022-09-09T10:59:29;35.10;52.90
59572;DHT22;59406;45.602;11.904;2022-09-09T11:02:02;35.10;51.80
59572;DHT22;59406;45.602;11.904;2022-09-09T11:04:38;33.80;55.40
59572;DHT22;59406;45.602;11.904;2022-09-09T11:07:08;33.60;57.00
59572;DHT22;59406;45.602;11.904;2022-09-09T11:09:41;32.80;57.60
59572;DHT22;59406;45.602;11.904;2022-09-09T11:12:15;32.50;58.70
59572;DHT22;59406;45.602;11.904;2022-09-09T11:14:48;32.90;58.70
59572;DHT22;59406;45.602;11.904;2022-09-09T11:18:01;31.80;61.10
59572;DHT22;59406;45.602;11.904;2022-09-09T11:20:12;31.30;62.20
59572;DHT22;59406;45.602;11.904;2022-09-09T11:22:56;31.60;62.00
59572;DHT22;59406;45.602;11.904;2022-09-09T11:25:32;31.30;63.00
59572;DHT22;59406;45.602;11.904;2022-09-09T11:38:46;30.90;64.30
59572;DHT22;59406;45.602;11.904;2022-09-09T11:41:14;31.30;65.70
59572;DHT22;59406;45.602;11.904;2022-09-09T11:43:46;31.40;64.60
59572;DHT22;59406;45.602;11.904;2022-09-09T11:46:19;31.30;63.90
59572;DHT22;59406;45.602;11.904;2022-09-09T11:49:02;30.00;66.60
59572;DHT22;59406;45.602;11.904;2022-09-09T11:51:30;29.80;67.00
59572;DHT22;59406;45.602;11.904;2022-09-09T11:54:26;29.60;68.40
59572;DHT22;59406;45.602;11.904;2022-09-09T11:56:55;29.70;67.00
59572;DHT22;59406;45.602;11.904;2022-09-09T11:59:28;29.60;66.90
59572;DHT22;59406;45.602;11.904;2022-09-09T12:02:12;29.40;69.00
59572;DHT22;59406;45.602;11.904;2022-09-09T12:04:59;29.50;68.80
59572;DHT22;59406;45.602;11.904;2022-09-09T12:07:49;29.40;69.30
59572;DHT22;59406;45.602;11.904;2022-09-09T12:10:34;29.20;69.20
59572;DHT22;59406;45.602;11.904;2022-09-09T12:13:19;29.20;69.30
59572;DHT22;59406;45.602;11.904;2022-09-09T12:15:53;28.80;71.00
59572;DHT22;59406;45.602;11.904;2022-09-09T12:18:36;28.50;71.60
59572;DHT22;59406;45.602;11.904;2022-09-09T12:23:56;29.00;71.20
59572;DHT22;59406;45.602;11.904;2022-09-09T12:29:12;28.90;71.50
59572;DHT22;59406;45.602;11.904;2022-09-09T12:31:49;28.80;71.60
59572;DHT22;59406;45.602;11.904;2022-09-09T12:34:34;28.80;71.90
59572;DHT22;59406;45.602;11.904;2022-09-09T12:39:57;28.50;73.10
59572;DHT22;59406;45.602;11.904;2022-09-09T12:42:25;28.30;72.20
59572;DHT22;59406;45.602;11.904;2022-09-09T12:44:57;28.30;72.30
59572;DHT22;59406;45.602;11.904;2022-09-09T12:49:53;28.60;73.00
59572;DHT22;59406;45.602;11.904;2022-09-09T12:52:37;28.30;72.90
59572;DHT22;59406;45.602;11.904;2022-09-09T12:55:07;28.20;73.70
59572;DHT22;59406;45.602;11.904;2022-09-09T12:57:43;27.80;75.00
59572;DHT22;59406;45.602;11.904;2022-09-09T13:00:23;27.60;76.50
59572;DHT22;59406;45.602;11.904;2022-09-09T13:02:58;26.30;79.80
59572;DHT22;59406;45.602;11.904;2022-09-09T13:05:36;24.30;83.20
59572;DHT22;59406;45.602;11.904;2022-09-09T13:08:10;23.30;82.30
59572;DHT22;59406;45.602;11.904;2022-09-09T13:10:50;22.70;83.30
59572;DHT22;59406;45.602;11.904;2022-09-09T13:13:27;22.50;82.30
59572;DHT22;59406;45.602;11.904;2022-09-09T13:16:03;22.20;80.00
59572;DHT22;59406;45.602;11.904;2022-09-09T13:18:37;22.10;80.40
59572;DHT22;59406;45.602;11.904;2022-09-09T13:21:05;22.00;80.10
59572;DHT22;59406;45.602;11.904;2022-09-09T13:23:35;22.00;80.90
59572;DHT22;59406;45.602;11.904;2022-09-09T13:26:04;22.20;81.50
59572;DHT22;59406;45.602;11.904;2022-09-09T13:28:32;22.30;81.10
59572;DHT22;59406;45.602;11.904;2022-09-09T13:31:00;22.70;80.60
59572;DHT22;59406;45.602;11.904;2022-09-09T13:33:45;23.00;79.70
59572;DHT22;59406;45.602;11.904;2022-09-09T13:36:12;23.40;80.70
59572;DHT22;59406;45.602;11.904;2022-09-09T13:41:23;23.70;79.80
59572;DHT22;59406;45.602;11.904;2022-09-09T13:43:50;23.90;80.90
59572;DHT22;59406;45.602;11.904;2022-09-09T13:46:36;24.40;81.80
59572;DHT22;59406;45.602;11.904;2022-09-09T13:49:23;25.10;79.20
59572;DHT22;59406;45.602;11.904;2022-09-09T13:52:13;26.50;81.20
59572;DHT22;59406;45.602;11.904;2022-09-09T13:54:40;27.90;77.80
59572;DHT22;59406;45.602;11.904;2022-09-09T13:59:44;27.00;77.40
59572;DHT22;59406;45.602;11.904;2022-09-09T14:02:11;27.20;78.00
59572;DHT22;59406;45.602;11.904;2022-09-09T14:04:37;27.30;77.60
59572;DHT22;59406;45.602;11.904;2022-09-09T14:07:03;27.50;77.10
59572;DHT22;59406;45.602;11.904;2022-09-09T14:09:29;27.40;77.60
59572;DHT22;59406;45.602;11.904;2022-09-09T14:11:55;27.20;76.30
59572;DHT22;59406;45.602;11.904;2022-09-09T14:14:21;27.30;76.70
59572;DHT22;59406;45.602;11.904;2022-09-09T14:16:47;27.30;76.90
59572;DHT22;59406;45.602;11.904;2022-09-09T14:19:13;28.00;76.20
59572;DHT22;59406;45.602;11.904;2022-09-09T14:21:39;28.10;74.60
59572;DHT22;59406;45.602;11.904;2022-09-09T14:24:05;28.00;75.00
59572;DHT22;59406;45.602;11.904;2022-09-09T14:26:32;28.10;75.10
59572;DHT22;59406;45.602;11.904;2022-09-09T14:28:58;27.90;75.00
59572;DHT22;59406;45.602;11.904;2022-09-09T14:31:24;28.00;75.00
59572;DHT22;59406;45.602;11.904;2022-09-09T14:33:51;28.20;74.90
59572;DHT22;59406;45.602;11.904;2022-09-09T14:36:18;27.90;75.20
59572;DHT22;59406;45.602;11.904;2022-09-09T14:38:44;28.80;75.00
59572;DHT22;59406;45.602;11.904;2022-09-09T14:41:16;29.10;74.10
59572;DHT22;59406;45.602;11.904;2022-09-09T14:43:43;29.60;72.60
59572;DHT22;59406;45.602;11.904;2022-09-09T14:46:12;29.80;72.60
59572;DHT22;59406;45.602;11.904;2022-09-09T14:48:39;30.00;72.20
59572;DHT22;59406;45.602;11.904;2022-09-09T14:51:12;30.50;70.70
59572;DHT22;59406;45.602;11.904;2022-09-09T14:53:40;30.90;70.80
59572;DHT22;59406;45.602;11.904;2022-09-09T14:56:10;31.10;69.50
59572;DHT22;59406;45.602;11.904;2022-09-09T14:58:37;30.90;70.20
59572;DHT22;59406;45.602;11.904;2022-09-09T15:01:09;31.20;70.00
59572;DHT22;59406;45.602;11.904;2022-09-09T15:03:42;31.40;68.10
59572;DHT22;59406;45.602;11.904;2022-09-09T15:06:14;31.50;66.90
59572;DHT22;59406;45.602;11.904;2022-09-09T15:08:44;31.20;68.50
59572;DHT22;59406;45.602;11.904;2022-09-09T15:11:12;31.20;67.50
59572;DHT22;59406;45.602;11.904;2022-09-09T15:13:40;31.10;67.90
59572;DHT22;59406;45.602;11.904;2022-09-09T15:16:08;31.40;67.10
59572;DHT22;59406;45.602;11.904;2022-09-09T15:18:35;31.40;65.00
59572;DHT22;59406;45.602;11.904;2022-09-09T15:21:04;31.60;66.40
59572;DHT22;59406;45.602;11.904;2022-09-09T15:23:35;31.80;65.60
59572;DHT22;59406;45.602;11.904;2022-09-09T15:26:02;32.10;61.30
59572;DHT22;59406;45.602;11.904;2022-09-09T15:28:28;32.20;62.90
59572;DHT22;59406;45.602;11.904;2022-09-09T15:30:54;32.40;61.30
59572;DHT22;59406;45.602;11.904;2022-09-09T15:33:22;32.30;61.50
59572;DHT22;59406;45.602;11.904;2022-09-09T15:35:49;32.30;61.40
59572;DHT22;59406;45.602;11.904;2022-09-09T15:38:16;32.80;60.30
59572;DHT22;59406;45.602;11.904;2022-09-09T15:40:43;33.10;59.70
59572;DHT22;59406;45.602;11.904;2022-09-09T15:43:10;33.30;58.20
59572;DHT22;59406;45.602;11.904;2022-09-09T15:45:37;33.00;59.70
59572;DHT22;59406;45.602;11.904;2022-09-09T15:48:04;33.10;59.00
59572;DHT22;59406;45.602;11.904;2022-09-09T15:50:30;33.20;57.80
59572;DHT22;59406;45.602;11.904;2022-09-09T15:53:01;33.30;57.90
59572;DHT22;59406;45.602;11.904;2022-09-09T15:55:29;33.40;56.80
59572;DHT22;59406;45.602;11.904;2022-09-09T15:57:54;33.00;57.60
59572;DHT22;59406;45.602;11.904;2022-09-09T16:00:21;32.70;58.30
59572;DHT22;59406;45.602;11.904;2022-09-09T16:02:48;32.60;58.50
59572;DHT22;59406;45.602;11.904;2022-09-09T16:05:15;32.00;59.60
59572;DHT22;59406;45.602;11.904;2022-09-09T16:07:41;31.70;61.90
59572;DHT22;59406;45.602;11.904;2022-09-09T16:10:10;31.40;62.40
59572;DHT22;59406;45.602;11.904;2022-09-09T16:12:39;31.30;62.60
59572;DHT22;59406;45.602;11.904;2022-09-09T16:15:06;31.10;63.70
59572;DHT22;59406;45.602;11.904;2022-09-09T16:17:32;31.00;64.00
59572;DHT22;59406;45.602;11.904;2022-09-09T16:20:04;30.70;64.80
59572;DHT22;59406;45.602;11.904;2022-09-09T16:22:32;30.80;64.50
59572;DHT22;59406;45.602;11.904;2022-09-09T16:24:58;31.30;64.30
59572;DHT22;59406;45.602;11.904;2022-09-09T16:27:24;31.60;62.90
59572;DHT22;59406;45.602;11.904;2022-09-09T16:29:50;31.20;63.90
59572;DHT22;59406;45.602;11.904;2022-09-09T16:32:16;30.20;65.50
59572;DHT22;59406;45.602;11.904;2022-09-09T16:34:42;29.40;66.30
59572;DHT22;59406;45.602;11.904;2022-09-09T16:37:08;28.80;69.90
59572;DHT22;59406;45.602;11.904;2022-09-09T16:39:34;28.40;70.40
59572;DHT22;59406;45.602;11.904;2022-09-09T16:42:00;28.20;71.00
59572;DHT22;59406;45.602;11.904;2022-09-09T16:44:27;27.80;71.40
59572;DHT22;59406;45.602;11.904;2022-09-09T16:46:53;27.40;72.10
59572;DHT22;59406;45.602;11.904;2022-09-09T16:49:20;27.00;72.50
59572;DHT22;59406;45.602;11.904;2022-09-09T16:51:48;26.80;72.70
59572;DHT22;59406;45.602;11.904;2022-09-09T16:54:16;26.70;72.80
59572;DHT22;59406;45.602;11.904;2022-09-09T16:56:44;27.30;72.40
59572;DHT22;59406;45.602;11.904;2022-09-09T16:59:19;28.40;71.10
59572;DHT22;59406;45.602;11.904;2022-09-09T17:01:48;29.30;68.50
59572;DHT22;59406;45.602;11.904;2022-09-09T17:04:19;29.80;65.90
59572;DHT22;59406;45.602;11.904;2022-09-09T17:06:48;29.90;65.60
59572;DHT22;59406;45.602;11.904;2022-09-09T17:09:18;30.00;65.20
59572;DHT22;59406;45.602;11.904;2022-09-09T17:11:45;29.70;65.50
59572;DHT22;59406;45.602;11.904;2022-09-09T17:14:14;29.20;66.50
59572;DHT22;59406;45.602;11.904;2022-09-09T17:16:41;28.30;70.50
59572;DHT22;59406;45.602;11.904;2022-09-09T17:19:08;27.60;71.40
59572;DHT22;59406;45.602;11.904;2022-09-09T17:21:35;27.00;72.20
59572;DHT22;59406;45.602;11.904;2022-09-09T17:24:02;26.60;72.70
59572;DHT22;59406;45.602;11.904;2022-09-09T17:26:30;26.30;72.50
59572;DHT22;59406;45.602;11.904;2022-09-09T17:28:57;26.00;72.90
59572;DHT22;59406;45.602;11.904;2022-09-09T17:31:27;25.80;73.50
59572;DHT22;59406;45.602;11.904;2022-09-09T17:33:53;25.50;74.00